createdAt,value
2023-05-16T00:00:48.241Z,4.70
2023-05-16T00:03:16.079Z,4.53
2023-05-16T00:05:43.884Z,4.23
2023-05-16T00:08:13.289Z,4.80
2023-05-16T00:10:41.309Z,4.00
2023-05-16T00:13:10.471Z,3.20
2023-05-16T00:15:38.488Z,2.80
2023-05-16T00:18:06.843Z,2.30
2023-05-16T00:20:34.860Z,2.70
2023-05-16T00:23:02.732Z,2.90
2023-05-16T00:25:31.891Z,3.07
2023-05-16T00:27:59.736Z,2.60
2023-05-16T00:30:27.877Z,2.50
2023-05-16T00:32:56.530Z,2.50
2023-05-16T00:35:24.894Z,3.00
2023-05-16T00:37:52.804Z,3.03
2023-05-16T00:40:22.784Z,2.87
2023-05-16T00:42:51.915Z,2.83
2023-05-16T00:45:20.581Z,3.10
2023-05-16T00:47:48.929Z,2.57
2023-05-16T00:50:17.367Z,2.33
2023-05-16T00:52:45.357Z,2.00
2023-05-16T00:55:14.302Z,3.07
2023-05-16T00:57:45.217Z,2.37
2023-05-16T01:00:15.949Z,2.40
2023-05-16T01:02:44.769Z,2.20
2023-05-16T01:05:13.146Z,2.10
2023-05-16T01:07:41.428Z,2.10
2023-05-16T01:10:10.170Z,2.30
2023-05-16T01:12:43.303Z,2.57
2023-05-16T01:15:16.671Z,2.70
2023-05-16T01:17:58.214Z,2.30
2023-05-16T01:20:34.889Z,2.30
2023-05-16T01:23:18.722Z,2.63
2023-05-16T01:25:58.019Z,2.60
2023-05-16T01:28:28.368Z,2.80
2023-05-16T01:30:56.675Z,2.60
2023-05-16T01:33:24.464Z,2.83
2023-05-16T01:36:00.915Z,2.77
2023-05-16T01:38:36.662Z,2.40
2023-05-16T01:41:12.648Z,2.37
2023-05-16T01:43:45.323Z,3.03
2023-05-16T01:46:15.711Z,2.30
2023-05-16T01:48:52.719Z,2.70
2023-05-16T01:51:23.931Z,2.60
2023-05-16T01:53:54.071Z,2.83
2023-05-16T01:56:22.970Z,2.70
2023-05-16T01:58:54.509Z,2.40
2023-05-16T02:01:22.450Z,2.90
2023-05-16T02:03:51.060Z,2.70
2023-05-16T02:06:18.969Z,2.90
2023-05-16T02:08:46.768Z,3.00
2023-05-16T02:11:14.507Z,2.90
2023-05-16T02:13:42.554Z,3.40
2023-05-16T02:16:13.262Z,2.90
2023-05-16T02:18:42.506Z,3.47
2023-05-16T02:21:10.552Z,3.00
2023-05-16T02:23:38.366Z,2.77
2023-05-16T02:26:06.451Z,2.60
2023-05-16T02:28:34.637Z,2.70
2023-05-16T02:31:03.218Z,3.10
2023-05-16T02:33:32.455Z,3.07
2023-05-16T02:36:00.218Z,3.07
2023-05-16T02:38:28.010Z,2.57
2023-05-16T02:40:56.933Z,2.87
2023-05-16T02:43:24.846Z,2.70
2023-05-16T02:45:53.115Z,2.67
2023-05-16T02:48:21.054Z,2.93
2023-05-16T02:50:50.653Z,2.90
2023-05-16T02:53:18.557Z,3.03
2023-05-16T02:55:46.375Z,3.07
2023-05-16T02:58:14.239Z,3.10
2023-05-16T03:00:42.681Z,2.87
2023-05-16T03:03:10.985Z,3.57
2023-05-16T03:05:38.922Z,3.23
2023-05-16T03:08:08.951Z,3.17
2023-05-16T03:10:36.760Z,3.30
2023-05-16T03:13:04.532Z,2.83
2023-05-16T03:15:32.327Z,2.97
2023-05-16T03:18:00.810Z,3.10
2023-05-16T03:20:28.546Z,2.63
2023-05-16T03:22:58.135Z,2.90
2023-05-16T03:25:27.706Z,2.63
2023-05-16T03:27:55.710Z,2.80
2023-05-16T03:30:24.092Z,3.00
2023-05-16T03:32:51.917Z,2.80
2023-05-16T03:35:20.280Z,3.27
2023-05-16T03:37:48.141Z,2.53
2023-05-16T03:40:15.937Z,3.00
2023-05-16T03:42:45.209Z,2.67
2023-05-16T03:45:13.635Z,3.00
2023-05-16T03:47:41.681Z,2.70
2023-05-16T03:50:10.907Z,3.10
2023-05-16T03:52:38.801Z,2.43
2023-05-16T03:55:08.121Z,2.50
2023-05-16T03:57:38.023Z,2.50
2023-05-16T04:00:09.139Z,2.73
2023-05-16T04:02:41.489Z,2.43
2023-05-16T04:05:11.118Z,2.27
2023-05-16T04:07:39.452Z,2.53
2023-05-16T04:10:08.043Z,2.40
2023-05-16T04:12:36.233Z,2.80
2023-05-16T04:15:04.375Z,2.87
2023-05-16T04:17:33.596Z,2.43
2023-05-16T04:20:01.730Z,2.57
2023-05-16T04:22:29.568Z,2.30
2023-05-16T04:24:57.424Z,2.60
2023-05-16T04:27:25.104Z,2.43
2023-05-16T04:29:52.982Z,2.47
2023-05-16T04:32:20.920Z,2.60
2023-05-16T04:34:53.250Z,2.63
2023-05-16T04:37:21.084Z,2.80
2023-05-16T04:39:48.784Z,2.87
2023-05-16T04:42:16.470Z,2.80
2023-05-16T04:44:44.898Z,2.20
2023-05-16T04:47:13.000Z,2.10
2023-05-16T04:49:40.796Z,2.20
2023-05-16T04:52:10.306Z,2.23
2023-05-16T04:54:39.245Z,2.70
2023-05-16T04:57:06.996Z,2.53
2023-05-16T04:59:34.854Z,2.17
2023-05-16T05:02:02.732Z,2.47
2023-05-16T05:04:30.733Z,2.03
2023-05-16T05:06:58.526Z,2.40
2023-05-16T05:09:27.722Z,2.40
2023-05-16T05:11:55.558Z,2.30
2023-05-16T05:14:23.853Z,2.30
2023-05-16T05:16:51.649Z,2.10
2023-05-16T05:19:19.607Z,2.40
2023-05-16T05:21:47.458Z,2.27
2023-05-16T05:24:15.422Z,2.50
2023-05-16T05:26:44.783Z,2.47
2023-05-16T05:29:12.961Z,2.50
2023-05-16T05:31:40.920Z,2.80
2023-05-16T05:34:08.809Z,2.77
2023-05-16T05:36:36.556Z,2.90
2023-05-16T05:39:04.617Z,2.20
2023-05-16T05:41:32.496Z,2.83
2023-05-16T05:44:02.015Z,2.73
2023-05-16T05:46:30.139Z,2.63
2023-05-16T05:48:58.704Z,2.30
2023-05-16T05:51:27.013Z,2.40
2023-05-16T05:53:55.506Z,3.07
2023-05-16T05:56:24.655Z,2.47
2023-05-16T05:58:52.433Z,2.90
2023-05-16T06:01:22.292Z,2.23
2023-05-16T06:03:50.197Z,2.53
2023-05-16T06:06:19.329Z,2.30
2023-05-16T06:08:47.110Z,2.37
2023-05-16T06:11:14.947Z,2.40
2023-05-16T06:13:42.681Z,2.83
2023-05-16T06:16:10.462Z,2.10
2023-05-16T06:18:39.684Z,2.30
2023-05-16T06:21:08.072Z,2.10
2023-05-16T06:23:35.985Z,2.10
2023-05-16T06:26:04.189Z,2.23
2023-05-16T06:28:32.307Z,2.40
2023-05-16T06:31:00.116Z,2.60
2023-05-16T06:33:27.888Z,2.00
2023-05-16T06:35:57.038Z,2.93
2023-05-16T06:38:24.945Z,1.90
2023-05-16T06:40:52.721Z,2.30
2023-05-16T06:43:20.572Z,2.37
2023-05-16T06:45:48.454Z,2.33
2023-05-16T06:48:16.491Z,1.90
2023-05-16T06:50:44.348Z,2.10
2023-05-16T06:53:13.828Z,2.17
2023-05-16T06:55:41.641Z,1.93
2023-05-16T06:58:09.587Z,2.33
2023-05-16T07:00:37.696Z,2.07
2023-05-16T07:03:06.050Z,2.23
2023-05-16T07:05:33.914Z,1.90
2023-05-16T07:08:01.864Z,1.50
2023-05-16T07:10:31.177Z,2.10
2023-05-16T07:13:01.477Z,2.47
2023-05-16T07:15:29.535Z,1.93
2023-05-16T07:17:57.907Z,1.80
2023-05-16T07:20:25.918Z,2.00
2023-05-16T07:22:53.717Z,1.70
2023-05-16T07:25:21.827Z,1.40
2023-05-16T07:27:51.041Z,1.50
2023-05-16T07:30:18.868Z,1.33
2023-05-16T07:32:46.796Z,1.80
2023-05-16T07:35:14.645Z,2.03
2023-05-16T07:37:43.537Z,1.53
2023-05-16T07:40:13.711Z,1.70
2023-05-16T07:42:41.655Z,1.63
2023-05-16T07:45:11.488Z,1.70
2023-05-16T07:47:39.324Z,1.50
2023-05-16T07:50:08.155Z,1.67
2023-05-16T07:52:36.322Z,1.30
2023-05-16T07:55:04.147Z,2.10
2023-05-16T07:57:35.121Z,1.93
2023-05-16T08:00:04.341Z,2.20
2023-05-16T08:02:41.925Z,1.40
2023-05-16T08:05:11.290Z,1.47
2023-05-16T08:07:39.575Z,1.37
2023-05-16T08:10:10.192Z,1.60
2023-05-16T08:12:40.434Z,1.30
2023-05-16T08:15:10.279Z,2.33
2023-05-16T08:17:38.754Z,2.17
2023-05-16T08:20:09.763Z,2.00
2023-05-16T08:22:38.222Z,2.07
2023-05-16T08:25:07.519Z,1.90
2023-05-16T08:27:36.214Z,2.10
2023-05-16T08:30:05.005Z,2.00
2023-05-16T08:32:33.575Z,1.77
2023-05-16T08:35:02.123Z,2.10
2023-05-16T08:37:32.009Z,2.50
2023-05-16T08:40:00.463Z,2.67
2023-05-16T08:42:28.982Z,2.10
2023-05-16T08:44:57.113Z,2.03
2023-05-16T08:47:26.517Z,2.03
2023-05-16T08:49:59.052Z,1.70
2023-05-16T08:52:30.317Z,1.73
2023-05-16T08:55:10.229Z,1.80
2023-05-16T08:57:41.085Z,1.60
2023-05-16T09:00:13.301Z,1.60
2023-05-16T09:02:43.226Z,1.60
2023-05-16T09:05:15.258Z,1.50
2023-05-16T09:07:44.409Z,1.83
2023-05-16T09:10:14.592Z,1.77
2023-05-16T09:12:44.211Z,1.43
2023-05-16T09:15:14.624Z,2.00
2023-05-16T09:17:46.812Z,2.10
2023-05-16T09:20:17.835Z,2.00
2023-05-16T09:22:54.305Z,1.87
2023-05-16T09:25:30.298Z,2.03
2023-05-16T09:28:02.395Z,2.40
2023-05-16T09:30:33.981Z,2.00
2023-05-16T09:33:03.348Z,1.80
2023-05-16T09:38:04.355Z,1.90
2023-05-16T09:40:34.822Z,1.60
2023-05-16T09:43:08.709Z,1.83
2023-05-16T09:45:37.909Z,1.33
2023-05-16T09:48:07.819Z,0.90
2023-05-16T09:50:37.857Z,1.00
2023-05-16T09:53:06.725Z,1.20
2023-05-16T09:55:36.769Z,1.67
2023-05-16T09:58:05.211Z,2.00
2023-05-16T10:00:35.175Z,1.43
2023-05-16T10:03:05.711Z,1.80
2023-05-16T10:05:37.774Z,1.60
2023-05-16T10:08:07.329Z,2.47
2023-05-16T10:10:39.672Z,2.47
2023-05-16T10:13:09.553Z,1.90
2023-05-16T10:15:39.505Z,1.90
2023-05-16T10:18:13.258Z,1.80
2023-05-16T10:20:44.038Z,1.70
2023-05-16T10:23:16.383Z,2.20
2023-05-16T10:25:47.399Z,1.80
2023-05-16T10:28:16.465Z,2.20
2023-05-16T10:30:47.014Z,2.07
2023-05-16T10:33:17.091Z,2.40
2023-05-16T10:35:46.752Z,1.33
2023-05-16T10:38:18.318Z,1.93
2023-05-16T10:40:49.377Z,1.50
2023-05-16T10:43:25.540Z,1.73
2023-05-16T10:45:57.957Z,1.80
2023-05-16T10:48:33.448Z,1.80
2023-05-16T10:51:04.542Z,1.40
2023-05-16T10:53:37.324Z,1.50
2023-05-16T10:56:12.764Z,1.00
2023-05-16T10:58:43.263Z,1.00
2023-05-16T11:01:23.124Z,1.00
2023-05-16T11:04:09.324Z,1.00
2023-05-16T11:06:47.858Z,1.10
2023-05-16T11:09:28.282Z,1.10
2023-05-16T11:12:03.496Z,0.80
2023-05-16T11:14:39.567Z,0.80
2023-05-16T11:17:13.619Z,0.80
2023-05-16T11:19:51.653Z,0.90
2023-05-16T11:22:27.464Z,0.90
2023-05-16T11:25:00.302Z,0.80
2023-05-16T11:27:31.399Z,0.80
2023-05-16T11:30:04.057Z,1.07
2023-05-16T11:32:35.018Z,1.10
2023-05-16T11:35:04.707Z,1.30
2023-05-16T11:37:32.913Z,0.80
2023-05-16T11:40:02.527Z,1.13
2023-05-16T11:42:33.901Z,0.80
2023-05-16T11:45:09.332Z,1.30
2023-05-16T11:47:39.290Z,1.70
2023-05-16T11:50:08.993Z,1.50
2023-05-16T11:52:37.456Z,1.50
2023-05-16T11:55:06.944Z,1.20
2023-05-16T11:57:36.805Z,1.30
2023-05-16T12:00:08.182Z,1.30
2023-05-16T12:02:36.657Z,1.00
2023-05-16T12:05:10.242Z,0.90
2023-05-16T12:07:39.436Z,1.03
2023-05-16T12:10:08.936Z,1.20
2023-05-16T12:12:40.940Z,0.90
2023-05-16T12:15:10.366Z,1.07
2023-05-16T12:17:40.173Z,1.10
2023-05-16T12:20:14.226Z,1.07
2023-05-16T12:22:42.381Z,1.27
2023-05-16T12:25:28.044Z,0.77
2023-05-16T12:27:59.598Z,0.77
2023-05-16T12:30:29.622Z,0.90
2023-05-16T12:32:58.559Z,0.80
2023-05-16T12:35:27.438Z,0.70
2023-05-16T12:37:56.205Z,0.60
2023-05-16T12:40:24.243Z,0.97
2023-05-16T12:42:52.571Z,0.70
2023-05-16T12:45:23.531Z,0.90
2023-05-16T12:47:52.016Z,1.00
2023-05-16T12:50:20.502Z,1.10
2023-05-16T12:52:50.629Z,0.80
2023-05-16T12:55:23.325Z,0.93
2023-05-16T12:57:52.088Z,1.30
2023-05-16T13:00:23.351Z,0.90
2023-05-16T13:02:52.440Z,1.10
2023-05-16T13:05:22.055Z,1.00
2023-05-16T13:07:51.582Z,1.00
2023-05-16T13:10:19.785Z,1.10
2023-05-16T13:12:47.766Z,1.27
2023-05-16T13:15:15.705Z,1.53
2023-05-16T13:17:45.436Z,1.53
2023-05-16T13:20:15.161Z,1.43
2023-05-16T13:22:44.356Z,1.07
2023-05-16T13:25:12.887Z,0.90
2023-05-16T13:27:40.961Z,0.90
2023-05-16T13:30:10.299Z,1.00
2023-05-16T13:32:38.187Z,1.00
2023-05-16T13:35:08.454Z,1.30
2023-05-16T13:37:36.959Z,1.10
2023-05-16T13:40:05.524Z,1.43
2023-05-16T13:42:33.361Z,1.27
2023-05-16T13:45:01.165Z,0.90
2023-05-16T13:47:30.237Z,1.30
2023-05-16T13:49:58.108Z,1.47
2023-05-16T13:52:27.446Z,1.50
2023-05-16T13:54:55.877Z,1.40
2023-05-16T13:57:24.061Z,1.20
2023-05-16T14:02:22.625Z,1.27
2023-05-16T14:04:50.674Z,1.30
2023-05-16T14:07:18.527Z,1.57
2023-05-16T14:09:48.030Z,1.40
2023-05-16T14:12:15.996Z,2.23
2023-05-16T14:14:43.827Z,1.80
2023-05-16T14:17:11.711Z,1.50
2023-05-16T14:19:39.554Z,1.80
2023-05-16T14:22:08.102Z,1.43
2023-05-16T14:24:35.907Z,1.70
2023-05-16T14:27:05.263Z,1.60
2023-05-16T14:29:33.137Z,1.60
2023-05-16T14:32:00.989Z,1.50
2023-05-16T14:34:28.932Z,1.50
2023-05-16T14:36:56.732Z,1.23
2023-05-16T14:39:24.493Z,1.60
2023-05-16T14:41:52.309Z,1.27
2023-05-16T14:44:21.757Z,1.60
2023-05-16T14:46:49.558Z,1.80
2023-05-16T14:49:17.358Z,1.53
2023-05-16T14:51:49.281Z,1.40
2023-05-16T14:54:17.414Z,1.40
2023-05-16T14:56:46.173Z,1.87
2023-05-16T14:59:14.270Z,1.23
2023-05-16T15:01:43.613Z,1.60
2023-05-16T15:04:11.534Z,1.70
2023-05-16T15:06:39.512Z,1.90
2023-05-16T15:09:07.345Z,1.47
2023-05-16T15:11:35.320Z,1.97
2023-05-16T15:14:03.116Z,1.80
2023-05-16T15:16:31.084Z,1.70
2023-05-16T15:19:00.432Z,1.87
2023-05-16T15:21:28.338Z,2.10
2023-05-16T15:23:56.346Z,1.97
2023-05-16T15:26:24.927Z,1.70
2023-05-16T15:28:55.424Z,1.93
2023-05-16T15:31:24.273Z,2.73
2023-05-16T15:33:52.535Z,2.90
2023-05-16T15:36:22.183Z,2.87
2023-05-16T15:38:50.269Z,2.07
2023-05-16T15:41:31.933Z,1.63
2023-05-16T15:44:07.078Z,1.70
2023-05-16T15:46:35.754Z,1.73
2023-05-16T15:49:04.219Z,1.87
2023-05-16T15:51:33.846Z,2.50
2023-05-16T15:54:03.252Z,2.53
2023-05-16T15:56:31.363Z,2.53
2023-05-16T15:58:59.570Z,2.50
2023-05-16T16:01:27.903Z,2.00
2023-05-16T16:03:58.531Z,1.67
2023-05-16T16:06:27.494Z,1.70
2023-05-16T16:08:57.497Z,1.97
2023-05-16T16:11:28.023Z,2.37
2023-05-16T16:13:56.382Z,2.83
2023-05-16T16:16:25.069Z,2.50
2023-05-16T16:18:54.528Z,2.67
2023-05-16T16:21:23.895Z,3.80
2023-05-16T16:23:52.197Z,3.50
2023-05-16T16:26:21.524Z,3.60
2023-05-16T16:28:50.187Z,2.53
2023-05-16T16:31:18.320Z,2.20
2023-05-16T16:33:49.310Z,2.90
2023-05-16T16:36:17.721Z,2.17
2023-05-16T16:38:45.723Z,2.10
2023-05-16T16:41:14.358Z,2.27
2023-05-16T16:43:43.667Z,1.90
2023-05-16T16:46:11.989Z,2.40
2023-05-16T16:48:40.147Z,2.30
2023-05-16T16:51:08.008Z,2.00
2023-05-16T16:53:37.807Z,2.00
2023-05-16T16:56:06.022Z,2.10
2023-05-16T16:58:33.910Z,1.83
2023-05-16T17:01:03.982Z,2.00
2023-05-16T17:03:32.070Z,2.60
2023-05-16T17:06:00.003Z,2.20
2023-05-16T17:08:27.906Z,2.20
2023-05-16T17:10:56.029Z,1.80
2023-05-16T17:13:23.794Z,2.30
2023-05-16T17:15:52.128Z,1.87
2023-05-16T17:18:21.780Z,1.70
2023-05-16T17:20:50.118Z,2.17
2023-05-16T17:23:17.998Z,2.17
2023-05-16T17:25:46.401Z,2.50
2023-05-16T17:28:14.518Z,1.83
2023-05-16T17:30:44.776Z,2.30
2023-05-16T17:33:12.554Z,2.30
2023-05-16T17:35:42.041Z,2.17
2023-05-16T17:38:11.207Z,2.37
2023-05-16T17:40:38.993Z,2.10
2023-05-16T17:43:06.913Z,2.20
2023-05-16T17:45:34.822Z,2.30
2023-05-16T17:48:02.609Z,1.90
2023-05-16T17:50:31.044Z,1.87
2023-05-16T17:53:00.529Z,2.27
2023-05-16T17:55:28.943Z,2.30
2023-05-16T17:57:57.100Z,2.20
2023-05-16T18:00:25.775Z,2.00
2023-05-16T18:02:53.674Z,2.47
2023-05-16T18:05:22.308Z,2.30
2023-05-16T18:07:50.279Z,2.50
2023-05-16T18:10:19.817Z,2.63
2023-05-16T18:12:47.980Z,2.80
2023-05-16T18:15:16.234Z,2.47
2023-05-16T18:17:44.100Z,3.20
2023-05-16T18:20:13.060Z,3.30
2023-05-16T18:22:41.253Z,2.90
2023-05-16T18:25:10.782Z,2.67
2023-05-16T18:27:40.143Z,2.30
2023-05-16T18:30:09.141Z,1.93
2023-05-16T18:32:37.259Z,2.20
2023-05-16T18:35:05.392Z,1.80
2023-05-16T18:37:33.223Z,2.20
2023-05-16T18:40:01.504Z,2.00
2023-05-16T18:42:29.575Z,1.80
2023-05-16T18:44:59.098Z,1.77
2023-05-16T18:47:27.179Z,1.97
2023-05-16T18:49:55.847Z,1.93
2023-05-16T18:52:23.719Z,1.70
2023-05-16T18:54:51.556Z,1.70
2023-05-16T18:57:19.497Z,1.73
2023-05-16T18:59:47.534Z,1.87
2023-05-16T19:02:17.923Z,1.50
2023-05-16T19:04:48.396Z,1.73
2023-05-16T19:07:16.257Z,1.40
2023-05-16T19:09:46.812Z,1.93
2023-05-16T19:12:14.633Z,1.80
2023-05-16T19:14:42.585Z,1.70
2023-05-16T19:17:10.608Z,1.50
2023-05-16T19:19:40.850Z,2.00
2023-05-16T19:22:08.932Z,2.10
2023-05-16T19:24:36.885Z,1.97
2023-05-16T19:27:05.120Z,1.40
2023-05-16T19:29:33.141Z,1.60
2023-05-16T19:32:02.975Z,1.53
2023-05-16T19:34:31.021Z,1.83
2023-05-16T19:37:02.154Z,1.93
2023-05-16T19:39:30.612Z,1.70
2023-05-16T19:42:06.667Z,1.60
2023-05-16T19:44:35.522Z,2.40
2023-05-16T19:47:03.323Z,1.50
2023-05-16T19:49:32.344Z,1.40
2023-05-16T19:52:03.230Z,1.60
2023-05-16T19:54:31.873Z,1.53
2023-05-16T19:56:59.677Z,2.00
2023-05-16T19:59:27.518Z,2.03
2023-05-16T20:01:55.302Z,1.80
2023-05-16T20:04:23.109Z,1.90
2023-05-16T20:06:51.855Z,2.20
2023-05-16T20:09:21.065Z,1.50
2023-05-16T20:11:49.653Z,1.97
2023-05-16T20:14:17.471Z,1.73
2023-05-16T20:16:45.436Z,2.37
2023-05-16T20:19:13.661Z,2.33
2023-05-16T20:21:41.659Z,2.10
2023-05-16T20:24:09.547Z,2.00
2023-05-16T20:26:38.680Z,2.40
2023-05-16T20:29:06.516Z,2.10
2023-05-16T20:31:34.536Z,3.03
2023-05-16T20:34:02.430Z,2.77
2023-05-16T20:36:30.938Z,1.80
2023-05-16T20:38:58.737Z,2.00
2023-05-16T20:41:26.749Z,2.10
2023-05-16T20:43:56.235Z,2.00
2023-05-16T20:46:24.229Z,1.73
2023-05-16T20:48:52.054Z,2.20
2023-05-16T20:51:19.926Z,2.27
2023-05-16T20:53:47.713Z,2.20
2023-05-16T20:56:15.493Z,2.30
2023-05-16T20:58:43.702Z,2.07
2023-05-16T21:01:12.867Z,2.40
2023-05-16T21:03:40.678Z,2.23
2023-05-16T21:06:08.548Z,2.23
2023-05-16T21:08:36.847Z,2.00
2023-05-16T21:11:04.808Z,1.87
2023-05-16T21:13:32.597Z,1.80
2023-05-16T21:16:00.629Z,2.03
2023-05-16T21:18:30.018Z,1.90
2023-05-16T21:20:57.982Z,2.07
2023-05-16T21:23:25.927Z,1.67
2023-05-16T21:25:53.683Z,1.70
2023-05-16T21:28:22.008Z,1.60
2023-05-16T21:30:49.886Z,1.63
2023-05-16T21:33:17.763Z,1.77
2023-05-16T21:35:47.220Z,1.50
2023-05-16T21:38:15.053Z,2.00
2023-05-16T21:40:42.901Z,1.70
2023-05-16T21:43:11.374Z,2.53
2023-05-16T21:45:40.151Z,1.77
2023-05-16T21:48:08.315Z,2.47
2023-05-16T21:50:36.220Z,2.47
2023-05-16T21:53:05.388Z,2.37
2023-05-16T21:55:33.242Z,1.53
2023-05-16T21:58:01.020Z,1.80
2023-05-16T22:00:28.981Z,1.80
2023-05-16T22:02:56.991Z,2.00
2023-05-16T22:05:25.264Z,1.80
2023-05-16T22:07:53.749Z,1.87
2023-05-16T22:10:23.191Z,2.17
2023-05-16T22:12:51.003Z,2.00
2023-05-16T22:15:18.866Z,1.90
2023-05-16T22:17:48.110Z,1.83
2023-05-16T22:20:16.150Z,2.03
2023-05-16T22:22:44.699Z,1.87
2023-05-16T22:25:12.857Z,1.83
2023-05-16T22:27:42.142Z,2.07
2023-05-16T22:30:10.366Z,1.90
2023-05-16T22:32:38.222Z,2.03
2023-05-16T22:35:06.696Z,2.10
2023-05-16T22:37:34.530Z,2.00
2023-05-16T22:40:02.478Z,1.83
2023-05-16T22:42:31.288Z,2.17
2023-05-16T22:45:00.597Z,2.10
2023-05-16T22:47:29.330Z,2.50
2023-05-16T22:49:57.183Z,2.40
2023-05-16T22:52:24.938Z,2.47
2023-05-16T22:54:52.735Z,2.77
2023-05-16T22:57:20.639Z,2.10
2023-05-16T22:59:48.710Z,2.70
2023-05-16T23:02:40.001Z,2.80
2023-05-16T23:05:09.112Z,2.50
2023-05-16T23:07:36.992Z,2.40
2023-05-16T23:10:06.005Z,2.40
2023-05-16T23:12:33.958Z,2.60
2023-05-16T23:15:01.818Z,2.30
2023-05-16T23:17:29.723Z,2.43
2023-05-16T23:19:59.123Z,2.47
2023-05-16T23:22:27.065Z,2.70
2023-05-16T23:24:54.874Z,2.63
2023-05-16T23:27:22.619Z,2.80
2023-05-16T23:29:50.572Z,3.13
2023-05-16T23:32:18.438Z,2.90
2023-05-16T23:34:46.431Z,3.37
2023-05-16T23:37:15.656Z,3.07
2023-05-16T23:39:43.510Z,3.30
2023-05-16T23:42:11.612Z,3.23
2023-05-16T23:44:41.826Z,3.23
2023-05-16T23:47:10.059Z,3.40
2023-05-16T23:49:38.233Z,3.60
2023-05-16T23:52:06.810Z,3.07
2023-05-16T23:54:36.078Z,3.33
2023-05-16T23:57:03.856Z,3.50
2023-05-16T23:59:31.663Z,2.90
